Time;durP1;ratioP1;P1;durP2;ratioP2;P2;SDS_P1;SDS_P2;PMS_P1;PMS_P2;Temp;Humidity;BMP_temperature;BMP_pressure;BME280_temperature;BME280_humidity;BME280_pressure;Samples;Min_cycle;Max_cycle;Signal;HPM_P1;HPM_P2
2023/05/22 00:01:05;;;;;;;10.50;9.40;;;15.40;99.90;;;;;;4956711;29;20247;-79
2023/05/22 00:03:35;;;;;;;13.57;8.87;;;15.40;99.90;;;;;;4964859;28;20254;-79
2023/05/22 00:06:08;;;;;;;10.20;9.10;;;15.40;99.90;;;;;;4956499;28;20211;-79
2023/05/22 00:08:36;;;;;;;12.73;8.97;;;15.30;99.90;;;;;;4956419;29;20279;-79
2023/05/22 00:11:05;;;;;;;10.20;9.13;;;15.20;99.90;;;;;;4956529;29;20239;-78
2023/05/22 00:13:33;;;;;;;10.37;8.80;;;15.20;99.90;;;;;;4955954;28;20217;-77
2023/05/22 00:16:01;;;;;;;11.23;8.77;;;15.30;99.90;;;;;;4956031;29;20322;-78
2023/05/22 00:18:29;;;;;;;11.40;8.90;;;15.20;99.90;;;;;;4956056;29;20211;-79
2023/05/22 00:20:58;;;;;;;9.93;8.90;;;15.20;99.90;;;;;;4956563;29;20274;-78
2023/05/22 00:23:28;;;;;;;11.97;9.20;;;15.20;99.90;;;;;;4955739;29;20579;-78
2023/05/22 00:25:57;;;;;;;9.53;8.53;;;15.20;99.90;;;;;;4957029;29;20211;-78
2023/05/22 00:28:25;;;;;;;11.20;9.03;;;15.10;99.90;;;;;;4958145;29;20212;-77
2023/05/22 00:30:53;;;;;;;10.50;9.00;;;15.10;99.90;;;;;;4958948;29;20239;-77
2023/05/22 00:33:21;;;;;;;10.57;8.63;;;15.00;99.90;;;;;;4958494;28;20212;-79
2023/05/22 00:35:49;;;;;;;11.07;9.00;;;15.00;99.90;;;;;;4958986;29;20275;-78
2023/05/22 00:38:31;;;;;;;10.67;9.30;;;14.90;99.90;;;;;;4958813;29;20263;-79
2023/05/22 00:40:59;;;;;;;10.37;9.10;;;14.90;99.90;;;;;;4962119;28;20229;-79
2023/05/22 00:43:28;;;;;;;10.10;9.10;;;14.80;99.90;;;;;;4974996;28;20799;-77
2023/05/22 00:45:56;;;;;;;10.00;8.97;;;14.70;99.90;;;;;;4975586;28;20298;-79
2023/05/22 00:48:25;;;;;;;10.93;9.83;;;14.70;99.90;;;;;;4966355;28;20270;-79
2023/05/22 00:50:55;;;;;;;12.93;9.90;;;14.60;99.90;;;;;;4955935;29;20207;-78
2023/05/22 00:53:25;;;;;;;11.50;9.43;;;14.60;99.90;;;;;;4955794;29;20235;-76
2023/05/22 00:55:55;;;;;;;11.00;9.90;;;14.50;99.90;;;;;;4955659;29;20231;-79
2023/05/22 00:58:26;;;;;;;11.03;9.87;;;14.40;99.90;;;;;;4955822;28;20272;-76
2023/05/22 01:00:55;;;;;;;11.67;9.60;;;14.40;99.90;;;;;;4955465;29;20262;-78
2023/05/22 01:03:24;;;;;;;13.30;9.47;;;14.30;99.90;;;;;;4974756;28;20215;-79
2023/05/22 01:05:54;;;;;;;11.53;10.33;;;14.30;99.90;;;;;;4975046;28;20557;-80
2023/05/22 01:08:22;;;;;;;11.80;9.67;;;14.20;99.90;;;;;;4958484;28;20215;-78
2023/05/22 01:10:56;;;;;;;12.63;10.17;;;14.10;99.90;;;;;;4955716;29;20212;-79
2023/05/22 01:13:30;;;;;;;11.50;9.87;;;14.10;99.90;;;;;;4955260;29;20215;-77
2023/05/22 01:16:13;;;;;;;10.70;9.67;;;14.00;99.90;;;;;;4954270;28;20327;-78
2023/05/22 01:18:46;;;;;;;10.70;9.63;;;13.90;99.90;;;;;;4955148;29;20250;-79
2023/05/22 01:21:21;;;;;;;11.23;9.50;;;13.80;99.90;;;;;;4955353;29;20212;-78
2023/05/22 01:24:28;;;;;;;11.57;10.37;;;13.70;99.90;;;;;;4955014;29;20218;-79
2023/05/22 01:27:24;;;;;;;13.63;10.47;;;13.60;99.90;;;;;;4954801;28;20241;-78
2023/05/22 01:30:10;;;;;;;11.40;10.30;;;13.60;99.90;;;;;;4954834;29;20688;-77
2023/05/22 01:32:43;;;;;;;12.83;10.60;;;13.50;99.90;;;;;;4955072;29;20216;-79
2023/05/22 01:35:15;;;;;;;11.67;10.27;;;13.40;99.90;;;;;;4955251;28;20215;-79
2023/05/22 01:37:55;;;;;;;13.70;11.30;;;13.40;99.90;;;;;;5125772;27;21010;-79
2023/05/22 01:40:24;;;;;;;13.40;11.00;;;13.40;99.90;;;;;;5110041;28;20226;-77
2023/05/22 01:42:52;;;;;;;13.17;11.87;;;13.30;99.90;;;;;;5102088;28;20207;-78
2023/05/22 01:45:21;;;;;;;12.70;11.07;;;13.30;99.90;;;;;;5089171;28;20699;-78
2023/05/22 01:47:49;;;;;;;12.60;11.30;;;13.20;99.90;;;;;;5089148;28;20207;-79
2023/05/22 01:50:18;;;;;;;14.13;11.67;;;13.20;99.90;;;;;;5089484;28;20207;-79
2023/05/22 01:52:53;;;;;;;13.33;12.03;;;13.20;99.90;;;;;;5089175;28;20272;-79
2023/05/22 01:55:28;;;;;;;14.63;11.67;;;13.20;99.90;;;;;;5089104;28;20633;-77
2023/05/22 01:58:02;;;;;;;14.37;12.20;;;13.20;99.90;;;;;;5089422;28;20216;-78
2023/05/22 02:00:32;;;;;;;12.93;11.37;;;13.20;99.90;;;;;;5092301;28;20603;-77
2023/05/22 02:03:06;;;;;;;14.13;11.73;;;13.10;99.90;;;;;;5088739;28;20210;-78
2023/05/22 02:05:38;;;;;;;13.37;11.97;;;13.10;99.90;;;;;;5089001;28;20314;-76
2023/05/22 02:08:07;;;;;;;13.23;11.80;;;13.00;99.90;;;;;;5088865;28;20191;-80
2023/05/22 02:10:38;;;;;;;12.33;11.13;;;12.90;99.90;;;;;;5088749;28;20365;-80
2023/05/22 02:13:07;;;;;;;13.77;12.23;;;12.90;99.90;;;;;;5088611;28;20211;-80
2023/05/22 02:15:35;;;;;;;12.83;11.53;;;12.80;99.90;;;;;;5088913;28;20211;-77
2023/05/22 02:18:09;;;;;;;12.63;11.30;;;12.90;99.90;;;;;;5088863;28;20227;-77
2023/05/22 02:20:37;;;;;;;13.70;12.30;;;12.80;99.90;;;;;;5088521;28;20211;-78
2023/05/22 02:23:06;;;;;;;13.37;12.07;;;12.80;99.90;;;;;;5088142;28;20207;-78
2023/05/22 02:25:35;;;;;;;14.30;12.90;;;12.80;99.90;;;;;;5088448;28;20210;-79
2023/05/22 02:28:03;;;;;;;13.83;12.53;;;12.80;99.90;;;;;;5088443;28;20245;-79
2023/05/22 02:30:32;;;;;;;14.30;12.77;;;12.80;99.90;;;;;;5103025;28;20252;-78
2023/05/22 02:33:00;;;;;;;13.40;12.10;;;12.80;99.90;;;;;;5108296;28;20253;-78
2023/05/22 02:35:28;;;;;;;14.17;12.50;;;12.80;99.90;;;;;;5108836;28;20238;-79
2023/05/22 02:37:56;;;;;;;13.10;11.80;;;12.80;99.90;;;;;;5108858;28;20280;-79
2023/05/22 02:40:24;;;;;;;13.60;12.20;;;12.80;99.90;;;;;;5108726;28;20240;-77
2023/05/22 02:42:53;;;;;;;13.10;11.90;;;12.70;99.90;;;;;;5108120;28;20214;-78
2023/05/22 02:45:22;;;;;;;13.83;12.43;;;;;;;;;;5108546;28;20667;-78
2023/05/22 02:47:50;;;;;;;14.40;12.90;;;12.50;99.90;;;;;;5083990;28;20290;-77
2023/05/22 02:50:19;;;;;;;14.57;13.10;;;12.50;99.90;;;;;;5074805;28;20211;-78
2023/05/22 02:52:48;;;;;;;14.73;13.23;;;12.40;99.90;;;;;;5074451;28;20208;-78
2023/05/22 02:55:16;;;;;;;17.57;13.13;;;12.30;99.90;;;;;;5074566;28;20265;-78
2023/05/22 02:57:44;;;;;;;15.10;13.50;;;12.30;99.90;;;;;;5074334;28;20219;-77
2023/05/22 03:00:14;;;;;;;14.83;13.33;;;12.20;99.90;;;;;;5091488;28;20284;-78
2023/05/22 03:02:42;;;;;;;14.10;12.60;;;12.20;99.90;;;;;;5094114;28;20695;-79
2023/05/22 03:05:16;;;;;;;15.00;13.60;;;12.10;99.90;;;;;;5083282;28;20234;-78
2023/05/22 03:07:45;;;;;;;14.53;13.03;;;12.10;99.90;;;;;;5074420;28;20188;-78
2023/05/22 03:10:15;;;;;;;14.40;12.93;;;12.00;99.90;;;;;;5074033;28;20239;-78
2023/05/22 03:12:43;;;;;;;14.87;13.33;;;11.90;99.90;;;;;;5074027;28;20239;-78
2023/05/22 03:15:13;;;;;;;16.43;13.53;;;11.90;99.90;;;;;;5073813;28;20231;-78
2023/05/22 03:17:41;;;;;;;15.63;13.07;;;11.80;99.90;;;;;;5074069;28;20650;-77
2023/05/22 03:20:10;;;;;;;14.83;13.20;;;11.80;99.90;;;;;;5073905;28;20207;-78
2023/05/22 03:22:38;;;;;;;15.00;13.60;;;11.80;99.90;;;;;;5073570;28;20204;-80
2023/05/22 03:25:08;;;;;;;15.40;13.90;;;11.70;99.90;;;;;;5073738;28;20250;-79
2023/05/22 03:27:36;;;;;;;16.03;14.33;;;11.70;99.90;;;;;;5074057;28;20269;-77
2023/05/22 03:30:05;;;;;;;15.83;14.23;;;11.70;99.90;;;;;;5074041;28;20253;-78
2023/05/22 03:32:36;;;;;;;16.63;14.33;;;11.70;99.90;;;;;;5085658;28;20211;-78
2023/05/22 03:35:06;;;;;;;15.77;14.17;;;11.80;99.90;;;;;;5094227;28;20278;-80
2023/05/22 03:37:35;;;;;;;16.27;14.60;;;11.70;99.90;;;;;;5093386;28;20259;-79
2023/05/22 03:40:04;;;;;;;16.07;14.37;;;11.70;99.90;;;;;;5094064;28;20238;-78
2023/05/22 03:42:32;;;;;;;16.93;14.13;;;11.70;99.90;;;;;;5078290;28;20670;-81
2023/05/22 03:45:00;;;;;;;18.53;14.80;;;11.70;99.90;;;;;;5073511;28;20208;-79
2023/05/22 03:47:28;;;;;;;15.33;13.73;;;11.60;99.90;;;;;;5073594;28;20235;-78
2023/05/22 03:49:58;;;;;;;16.53;14.57;;;11.60;99.90;;;;;;5073765;28;20213;-78
2023/05/22 03:52:26;;;;;;;15.97;14.43;;;11.60;99.90;;;;;;5072968;28;20208;-79
2023/05/22 03:54:54;;;;;;;16.30;13.83;;;11.60;99.90;;;;;;5073481;28;20294;-79
2023/05/22 03:57:22;;;;;;;15.40;13.83;;;11.60;99.90;;;;;;5078252;28;20268;-80
2023/05/22 03:59:50;;;;;;;15.97;14.03;;;11.60;99.90;;;;;;5079963;28;20235;-79
2023/05/22 04:02:19;;;;;;;15.60;13.63;;;11.50;99.90;;;;;;5073056;28;20261;-80
2023/05/22 04:04:47;;;;;;;16.17;14.33;;;11.50;99.90;;;;;;5073545;28;20246;-80
2023/05/22 04:07:19;;;;;;;15.77;14.20;;;11.60;99.90;;;;;;5073351;28;20207;-78
2023/05/22 04:09:47;;;;;;;16.73;15.03;;;11.60;99.90;;;;;;5073429;28;20265;-79
2023/05/22 04:12:15;;;;;;;15.67;13.60;;;11.60;99.90;;;;;;5072916;28;20661;-78
2023/05/22 04:14:43;;;;;;;16.30;14.43;;;11.60;99.90;;;;;;5072938;28;20726;-79
2023/05/22 04:17:11;;;;;;;16.33;14.67;;;11.60;99.90;;;;;;5072805;28;20227;-81
2023/05/22 04:19:39;;;;;;;16.97;15.30;;;11.70;99.90;;;;;;5072990;28;20212;-79
2023/05/22 04:22:07;;;;;;;18.27;15.00;;;11.60;99.90;;;;;;5072383;28;20216;-81
2023/05/22 04:24:38;;;;;;;16.17;14.57;;;11.70;99.90;;;;;;5081431;28;20233;-79
2023/05/22 04:27:06;;;;;;;17.63;15.47;;;11.70;99.90;;;;;;5093061;28;20203;-80
2023/05/22 04:29:35;;;;;;;16.70;14.90;;;11.80;99.90;;;;;;5093166;28;20503;-80
2023/05/22 04:32:05;;;;;;;16.83;15.03;;;11.90;99.90;;;;;;5088019;28;20211;-78
2023/05/22 04:34:36;;;;;;;18.57;15.40;;;11.90;99.90;;;;;;5072457;28;20230;-80
2023/05/22 04:37:05;;;;;;;19.87;15.47;;;12.00;99.90;;;;;;5072582;28;20247;-79
2023/05/22 04:39:33;;;;;;;17.37;15.13;;;12.10;99.90;;;;;;5072789;28;20204;-78
2023/05/22 04:42:04;;;;;;;17.57;15.70;;;12.20;99.90;;;;;;5074073;28;20569;-77
2023/05/22 04:44:33;;;;;;;16.73;14.83;;;12.20;99.90;;;;;;5074232;28;20214;-78
2023/05/22 04:47:02;;;;;;;16.93;15.23;;;12.30;99.90;;;;;;5073809;28;20211;-79
2023/05/22 04:49:34;;;;;;;15.90;14.23;;;12.40;99.90;;;;;;5073007;28;20277;-78
2023/05/22 04:52:04;;;;;;;17.23;14.97;;;12.50;99.90;;;;;;5072892;28;20609;-77
2023/05/22 04:54:32;;;;;;;16.30;14.60;;;12.60;99.90;;;;;;5072622;28;20584;-78
2023/05/22 04:57:03;;;;;;;14.70;13.40;;;12.70;99.90;;;;;;5082561;28;20199;-79
2023/05/22 04:59:32;;;;;;;14.60;13.10;;;12.80;99.90;;;;;;5072571;28;20241;-79
2023/05/22 05:02:00;;;;;;;15.87;14.37;;;12.90;99.90;;;;;;5071896;28;20669;-78
2023/05/22 05:04:28;;;;;;;14.80;13.30;;;13.00;99.90;;;;;;5072177;28;20253;-78
2023/05/22 05:06:57;;;;;;;15.93;13.67;;;13.00;99.90;;;;;;5071697;28;20266;-80
2023/05/22 05:09:25;;;;;;;14.97;13.37;;;13.20;99.90;;;;;;5072377;28;20210;-79
2023/05/22 05:11:53;;;;;;;14.60;13.17;;;13.20;99.90;;;;;;5071744;28;20348;-80
2023/05/22 05:14:23;;;;;;;14.43;13.03;;;13.30;99.90;;;;;;5071732;28;20294;-78
2023/05/22 05:16:51;;;;;;;15.23;13.43;;;13.30;99.90;;;;;;5072293;28;20249;-79
2023/05/22 05:19:20;;;;;;;16.53;13.57;;;13.50;99.90;;;;;;5072087;28;20219;-79
2023/05/22 05:21:49;;;;;;;17.87;13.57;;;13.60;99.90;;;;;;5071825;28;20211;-79
2023/05/22 05:24:17;;;;;;;13.93;12.43;;;13.60;99.90;;;;;;5071597;28;20246;-79
2023/05/22 05:26:45;;;;;;;13.27;11.73;;;13.80;99.90;;;;;;5071959;28;20618;-79
2023/05/22 05:29:14;;;;;;;15.33;13.53;;;13.80;99.90;;;;;;5072493;28;20257;-80
2023/05/22 05:31:44;;;;;;;16.10;13.13;;;14.00;99.90;;;;;;5071565;28;20261;-79
2023/05/22 05:34:12;;;;;;;14.40;12.57;;;14.00;99.90;;;;;;5071781;28;20207;-81
2023/05/22 05:36:40;;;;;;;15.03;13.50;;;14.20;99.90;;;;;;5071720;28;20235;-78
2023/05/22 05:39:08;;;;;;;15.20;13.10;;;14.20;99.90;;;;;;5071817;28;20318;-79
2023/05/22 05:41:36;;;;;;;14.67;12.83;;;14.40;99.90;;;;;;5071237;28;20250;-79
2023/05/22 05:44:04;;;;;;;16.23;12.47;;;14.60;99.90;;;;;;5071675;28;20242;-80
2023/05/22 05:46:33;;;;;;;13.50;11.57;;;14.80;99.90;;;;;;5071855;28;20215;-79
2023/05/22 05:49:08;;;;;;;11.50;10.23;;;15.20;99.90;;;;;;5071617;28;20207;-75
2023/05/22 05:51:37;;;;;;;11.57;10.40;;;15.60;99.90;;;;;;5072163;28;20293;-77
2023/05/22 05:54:05;;;;;;;11.10;9.33;;;16.10;99.90;;;;;;5073071;28;20211;-78
2023/05/22 05:56:34;;;;;;;10.70;8.83;;;17.20;99.90;;;;;;5092601;28;20265;-79
2023/05/22 05:59:02;;;;;;;9.83;8.80;;;18.20;99.90;;;;;;5089858;28;20605;-78
2023/05/22 06:01:34;;;;;;;8.77;7.90;;;19.00;99.90;;;;;;5072225;28;20203;-79
2023/05/22 06:04:04;;;;;;;9.23;7.97;;;19.80;99.90;;;;;;5072036;28;20234;-79
2023/05/22 06:06:34;;;;;;;9.03;8.03;;;21.10;99.90;;;;;;5072413;28;20214;-77
2023/05/22 06:09:05;;;;;;;8.60;7.70;;;21.90;99.90;;;;;;5072520;28;20619;-78
2023/05/22 06:11:34;;;;;;;10.03;7.83;;;22.30;99.90;;;;;;5072827;28;20204;-77
2023/05/22 06:14:03;;;;;;;9.90;7.90;;;23.00;99.90;;;;;;5072114;28;20207;-77
2023/05/22 06:16:31;;;;;;;9.70;7.93;;;22.50;99.90;;;;;;5072104;28;20310;-77
2023/05/22 06:19:00;;;;;;;11.47;7.83;;;23.20;99.90;;;;;;5071963;28;20319;-77
2023/05/22 06:21:30;;;;;;;9.50;8.27;;;23.20;99.90;;;;;;5071881;28;20243;-78
2023/05/22 06:23:58;;;;;;;8.43;7.30;;;23.90;99.00;;;;;;5074358;28;20212;-76
2023/05/22 06:26:27;;;;;;;8.38;7.30;;;24.50;98.50;;;;;;5075759;28;20226;-79
2023/05/22 06:28:55;;;;;;;9.05;7.65;;;25.20;97.20;;;;;;5075760;28;20235;-78
2023/05/22 06:31:24;;;;;;;8.95;7.25;;;25.30;94.70;;;;;;5075904;28;20250;-77
2023/05/22 06:33:52;;;;;;;8.27;7.38;;;26.10;92.10;;;;;;5076004;28;20204;-77
2023/05/22 06:36:21;;;;;;;7.80;6.70;;;25.50;90.60;;;;;;5076005;28;20716;-77
2023/05/22 06:38:53;;;;;;;9.02;7.20;;;25.80;89.00;;;;;;5075990;28;20230;-77
2023/05/22 06:41:22;;;;;;;9.65;6.72;;;25.60;84.80;;;;;;5075906;28;20212;-75
2023/05/22 06:43:50;;;;;;;8.57;7.00;;;25.20;85.50;;;;;;5076089;28;20212;-76
2023/05/22 06:46:18;;;;;;;11.02;7.85;;;25.50;85.60;;;;;;5075430;28;20298;-78
2023/05/22 06:48:47;;;;;;;9.13;7.20;;;25.90;85.60;;;;;;5075556;28;20257;-77
2023/05/22 06:51:15;;;;;;;9.95;7.53;;;26.20;84.20;;;;;;5076216;28;20216;-78
2023/05/22 06:53:44;;;;;;;9.73;7.55;;;26.20;84.10;;;;;;5086297;28;20213;-77
2023/05/22 06:56:13;;;;;;;10.38;7.10;;;26.50;81.90;;;;;;5091474;28;20578;-77
2023/05/22 06:58:42;;;;;;;9.23;7.30;;;26.80;81.20;;;;;;5075766;28;20315;-78
2023/05/22 07:01:10;;;;;;;7.85;6.88;;;27.00;78.00;;;;;;5082907;28;20203;-78
2023/05/22 07:03:39;;;;;;;8.52;7.07;;;26.40;82.60;;;;;;5095952;28;20213;-79
2023/05/22 07:06:07;;;;;;;10.30;7.90;;;26.60;80.90;;;;;;5089397;28;20623;-76
2023/05/22 07:08:36;;;;;;;11.32;7.13;;;27.30;80.50;;;;;;5076148;28;20620;-79
2023/05/22 07:11:06;;;;;;;9.05;6.88;;;27.90;78.70;;;;;;5075748;28;20662;-75
2023/05/22 07:13:36;;;;;;;12.48;7.80;;;28.80;76.60;;;;;;5074337;28;20218;-76
2023/05/22 07:16:05;;;;;;;8.60;7.68;;;28.90;71.40;;;;;;5074635;28;20234;-77
2023/05/22 07:18:33;;;;;;;12.82;8.10;;;28.00;74.30;;;;;;5074871;28;20231;-75
2023/05/22 07:21:02;;;;;;;9.98;8.68;;;28.20;72.50;;;;;;5074497;28;20662;-78
2023/05/22 07:23:31;;;;;;;9.25;7.40;;;28.30;72.30;;;;;;5074030;28;20644;-74
2023/05/22 07:25:59;;;;;;;10.95;7.88;;;28.40;73.60;;;;;;5074337;28;20207;-77
2023/05/22 07:28:28;;;;;;;8.77;7.88;;;28.20;71.10;;;;;;5074817;28;20207;-78
2023/05/22 07:30:58;;;;;;;9.18;8.27;;;27.50;72.70;;;;;;5074688;28;20214;-78
2023/05/22 07:33:26;;;;;;;8.60;7.18;;;27.80;74.30;;;;;;5073843;28;20303;-75
2023/05/22 07:35:54;;;;;;;8.65;7.80;;;28.20;74.80;;;;;;5074316;28;20239;-78
2023/05/22 07:38:23;;;;;;;9.38;8.32;;;28.90;72.80;;;;;;5074748;28;20214;-76
2023/05/22 07:40:51;;;;;;;10.85;8.60;;;28.80;70.30;;;;;;5073861;28;20226;-78
2023/05/22 07:43:20;;;;;;;9.45;7.97;;;28.90;69.60;;;;;;5073848;28;20218;-77
2023/05/22 07:45:48;;;;;;;8.98;7.72;;;28.60;71.50;;;;;;5074266;28;20222;-75
2023/05/22 07:48:18;;;;;;;10.45;8.82;;;29.10;68.30;;;;;;5073523;28;20744;-75
2023/05/22 07:50:46;;;;;;;9.68;8.23;;;29.00;70.40;;;;;;5073933;28;20207;-76
2023/05/22 07:53:15;;;;;;;9.38;8.40;;;29.20;70.60;;;;;;5084263;28;20286;-76
2023/05/22 07:55:43;;;;;;;10.63;7.70;;;29.50;67.70;;;;;;5073744;28;20215;-75
2023/05/22 07:58:11;;;;;;;8.55;7.72;;;30.00;66.50;;;;;;5073763;28;20207;-76
2023/05/22 08:00:40;;;;;;;9.13;8.23;;;30.00;66.30;;;;;;5073953;28;20239;-74
2023/05/22 08:03:08;;;;;;;10.43;7.78;;;30.20;63.90;;;;;;5073265;28;20222;-77
2023/05/22 08:05:39;;;;;;;8.63;7.55;;;30.50;63.20;;;;;;5073931;28;20579;-75
2023/05/22 08:08:09;;;;;;;8.55;7.75;;;30.70;63.90;;;;;;5074139;28;20215;-76
2023/05/22 08:10:37;;;;;;;11.25;8.25;;;30.50;63.50;;;;;;5079193;28;20210;-77
2023/05/22 08:13:26;;;;;;;9.48;7.90;;;30.70;62.90;;;;;;5093416;28;20207;-77
2023/05/22 08:15:54;;;;;;;9.50;8.55;;;31.40;61.70;;;;;;5093721;28;20207;-75
2023/05/22 08:18:28;;;;;;;8.60;7.72;;;31.10;60.20;;;;;;5092585;28;20195;-75
2023/05/22 08:21:00;;;;;;;11.05;8.90;;;30.90;62.50;;;;;;5073676;28;20253;-75
2023/05/22 08:23:28;;;;;;;9.70;8.77;;;31.30;59.90;;;;;;5073376;28;20204;-78
2023/05/22 08:25:57;;;;;;;10.02;8.85;;;31.90;58.10;;;;;;5073996;28;20233;-75
2023/05/22 08:28:26;;;;;;;10.30;9.20;;;30.80;59.70;;;;;;5086935;28;20205;-75
2023/05/22 08:30:55;;;;;;;10.23;9.32;;;30.70;61.20;;;;;;5093918;28;20199;-77
2023/05/22 08:33:23;;;;;;;9.80;8.80;;;30.40;61.90;;;;;;5093038;28;20210;-78
2023/05/22 08:35:51;;;;;;;14.20;9.77;;;30.50;64.60;;;;;;5082347;28;20243;-76
2023/05/22 08:38:21;;;;;;;10.40;9.40;;;30.90;63.40;;;;;;5072902;28;20278;-77
2023/05/22 08:40:50;;;;;;;11.15;9.80;;;31.20;60.90;;;;;;5073473;28;20228;-77
2023/05/22 08:43:20;;;;;;;10.43;9.32;;;31.30;59.40;;;;;;5072204;28;20218;-75
2023/05/22 08:45:56;;;;;;;10.32;9.27;;;31.10;63.00;;;;;;5072582;28;20586;-77
2023/05/22 08:48:29;;;;;;;12.55;9.40;;;30.80;62.40;;;;;;5072943;28;20241;-77
2023/05/22 08:51:02;;;;;;;10.75;9.63;;;31.40;61.80;;;;;;5083163;28;20637;-77
2023/05/22 08:53:35;;;;;;;11.02;8.40;;;31.50;61.50;;;;;;5092613;28;20211;-77
2023/05/22 08:56:05;;;;;;;10.90;9.80;;;32.20;62.10;;;;;;5094189;28;20282;-75
2023/05/22 08:58:36;;;;;;;10.20;9.27;;;32.30;58.30;;;;;;5093003;28;20293;-76
2023/05/22 09:01:05;;;;;;;12.73;9.48;;;32.00;59.40;;;;;;5085908;28;20246;-75
2023/05/22 09:03:36;;;;;;;11.98;10.77;;;32.00;58.30;;;;;;5072882;28;20212;-75
2023/05/22 09:06:09;;;;;;;11.95;9.70;;;31.90;56.90;;;;;;5073085;28;20691;-76
2023/05/22 09:08:41;;;;;;;11.88;9.30;;;30.90;60.00;;;;;;5073095;28;20318;-74
2023/05/22 09:11:09;;;;;;;10.90;9.80;;;31.20;60.60;;;;;;5072566;28;20570;-74
2023/05/22 09:13:40;;;;;;;12.23;9.77;;;30.60;62.80;;;;;;5072732;28;20231;-75
2023/05/22 09:16:09;;;;;;;13.55;9.82;;;31.10;63.00;;;;;;5072914;28;20207;-76
2023/05/22 09:18:38;;;;;;;10.40;9.50;;;31.30;60.70;;;;;;5073175;28;20207;-76
2023/05/22 09:21:07;;;;;;;13.68;10.45;;;31.60;58.90;;;;;;5072600;28;20211;-78
2023/05/22 09:23:59;;;;;;;11.05;9.80;;;31.30;60.60;;;;;;5072362;28;20191;-78
2023/05/22 09:26:28;;;;;;;10.95;9.73;;;31.30;61.70;;;;;;5086777;28;20213;-77
2023/05/22 09:28:59;;;;;;;9.55;8.55;;;31.90;60.20;;;;;;5092889;28;20294;-76
2023/05/22 09:31:29;;;;;;;10.18;9.05;;;31.80;63.90;;;;;;5092834;28;20234;-76
2023/05/22 09:33:58;;;;;;;11.13;10.13;;;32.40;60.10;;;;;;5080624;28;20261;-76
2023/05/22 09:36:33;;;;;;;10.50;9.48;;;33.10;59.30;;;;;;5072410;28;20239;-77
2023/05/22 09:39:03;;;;;;;10.82;9.63;;;33.20;57.50;;;;;;5072111;28;20691;-76
2023/05/22 09:41:36;;;;;;;11.25;9.18;;;33.50;57.60;;;;;;5072210;28;20691;-76
2023/05/22 09:44:12;;;;;;;9.88;8.95;;;32.90;57.70;;;;;;5071887;28;20215;-77
2023/05/22 09:46:42;;;;;;;10.88;9.75;;;33.10;56.80;;;;;;5071875;28;20245;-76
2023/05/22 09:49:11;;;;;;;12.23;11.02;;;33.10;55.50;;;;;;5078755;28;20205;-75
2023/05/22 09:51:47;;;;;;;12.00;10.75;;;32.90;55.40;;;;;;5072235;28;20581;-77
2023/05/22 09:54:20;;;;;;;12.60;10.10;;;32.30;56.60;;;;;;5072037;28;20207;-76
2023/05/22 09:56:49;;;;;;;11.25;10.13;;;31.50;60.00;;;;;;5071937;28;20191;-75
2023/05/22 09:59:22;;;;;;;12.35;10.60;;;33.60;56.00;;;;;;5075466;28;20218;-76
2023/05/22 10:01:50;;;;;;;10.98;9.98;;;33.20;54.70;;;;;;5075740;28;20241;-75
2023/05/22 10:04:21;;;;;;;11.38;10.25;;;33.50;55.90;;;;;;5075702;28;20217;-75
2023/05/22 10:06:52;;;;;;;11.00;9.88;;;33.20;55.60;;;;;;5075977;28;20222;-75
2023/05/22 10:09:29;;;;;;;13.00;11.80;;;31.60;59.40;;;;;;5075356;28;20207;-77
2023/05/22 10:12:04;;;;;;;11.65;10.65;;;31.90;56.60;;;;;;5075104;28;20226;-76
2023/05/22 10:14:34;;;;;;;11.43;10.32;;;32.50;56.70;;;;;;5076256;28;20230;-75
2023/05/22 10:17:05;;;;;;;12.85;11.65;;;31.60;58.60;;;;;;5075724;28;20605;-77
2023/05/22 10:19:36;;;;;;;12.68;11.40;;;29.90;59.60;;;;;;5075732;28;20268;-75
2023/05/22 10:22:08;;;;;;;12.73;10.15;;;30.70;61.30;;;;;;5075503;28;20191;-77
2023/05/22 10:24:39;;;;;;;13.35;11.95;;;30.40;60.60;;;;;;5075126;28;20297;-77
2023/05/22 10:27:08;;;;;;;13.68;12.25;;;29.50;62.60;;;;;;5075426;28;20207;-78
2023/05/22 10:29:43;;;;;;;13.45;11.55;;;29.80;62.40;;;;;;5075162;28;20262;-77
2023/05/22 10:32:20;;;;;;;12.90;11.60;;;28.90;64.20;;;;;;5075012;28;20253;-77
2023/05/22 10:34:57;;;;;;;11.30;9.98;;;29.20;64.70;;;;;;5075449;28;20245;-76
2023/05/22 10:37:39;;;;;;;11.73;9.95;;;30.30;64.90;;;;;;5073845;28;20257;-75
2023/05/22 10:40:11;;;;;;;11.65;10.55;;;30.90;61.50;;;;;;5075470;28;20264;-77
2023/05/22 10:42:41;;;;;;;12.20;11.07;;;30.90;58.40;;;;;;5074761;28;20215;-76
2023/05/22 10:45:10;;;;;;;12.20;10.90;;;29.60;63.20;;;;;;5078683;28;20198;-75
2023/05/22 10:47:39;;;;;;;13.60;12.27;;;30.60;63.50;;;;;;5095255;28;20305;-77
2023/05/22 10:50:09;;;;;;;12.00;10.55;;;30.80;63.70;;;;;;5095560;28;20209;-77
2023/05/22 10:52:39;;;;;;;14.68;13.18;;;30.60;63.80;;;;;;5094780;28;20274;-76
2023/05/22 10:55:10;;;;;;;17.42;12.30;;;30.50;61.90;;;;;;5082755;28;20725;-77
2023/05/22 10:57:39;;;;;;;13.60;11.90;;;30.80;62.50;;;;;;5074999;28;20212;-77
2023/05/22 11:00:12;;;;;;;13.00;11.63;;;29.70;63.50;;;;;;5074943;28;20207;-78
2023/05/22 11:02:42;;;;;;;13.10;11.70;;;29.70;64.40;;;;;;5074690;28;20214;-76
2023/05/22 11:05:35;;;;;;;13.20;11.93;;;28.80;64.90;;;;;;5093422;28;20621;-77
2023/05/22 11:08:37;;;;;;;12.43;11.23;;;28.60;68.10;;;;;;5094925;28;20210;-76
2023/05/22 11:11:14;;;;;;;15.65;12.27;;;29.50;67.80;;;;;;5094721;28;20252;-76
2023/05/22 11:13:42;;;;;;;14.73;12.15;;;29.40;65.60;;;;;;5077723;28;20656;-79
2023/05/22 11:16:11;;;;;;;12.70;11.48;;;29.70;62.80;;;;;;5074643;28;20577;-77
2023/05/22 11:18:39;;;;;;;11.63;10.45;;;29.10;67.00;;;;;;5074772;28;20250;-77
2023/05/22 11:21:12;;;;;;;12.40;11.20;;;29.40;67.60;;;;;;5074361;28;20211;-78
2023/05/22 11:23:41;;;;;;;11.50;10.50;;;29.90;65.20;;;;;;5073896;28;20668;-78
2023/05/22 11:26:28;;;;;;;11.80;10.57;;;30.10;64.60;;;;;;5074235;28;20208;-76
2023/05/22 11:29:00;;;;;;;15.25;12.13;;;30.40;63.90;;;;;;5074691;28;20215;-75
2023/05/22 11:31:30;;;;;;;12.80;11.50;;;30.90;59.00;;;;;;5074498;28;20227;-76
2023/05/22 11:33:58;;;;;;;11.65;10.60;;;30.50;61.40;;;;;;5074337;28;20290;-76
2023/05/22 11:36:28;;;;;;;12.05;10.82;;;29.80;63.00;;;;;;5073646;28;20238;-77
2023/05/22 11:38:58;;;;;;;13.38;10.93;;;29.80;66.20;;;;;;5073762;28;20760;-75
2023/05/22 11:41:32;;;;;;;13.25;11.95;;;28.90;68.30;;;;;;5074178;28;20210;-76
2023/05/22 11:44:01;;;;;;;13.25;11.95;;;29.20;67.10;;;;;;5073884;28;20613;-77
2023/05/22 11:46:29;;;;;;;13.05;11.85;;;29.00;65.10;;;;;;5087387;28;20206;-78
2023/05/22 11:48:58;;;;;;;12.93;11.35;;;28.10;70.70;;;;;;5094230;28;20241;-76
2023/05/22 11:51:28;;;;;;;12.52;9.85;;;28.10;73.20;;;;;;5094162;28;20287;-77
2023/05/22 11:53:57;;;;;;;11.70;10.30;;;28.60;71.10;;;;;;5087137;28;20261;-77
2023/05/22 11:56:26;;;;;;;11.83;10.60;;;28.60;69.80;;;;;;5073645;28;20669;-77
2023/05/22 11:58:56;;;;;;;11.00;9.57;;;28.40;69.20;;;;;;5073568;28;20253;-77
2023/05/22 12:01:25;;;;;;;11.93;10.53;;;28.50;70.60;;;;;;5073745;28;20203;-77
2023/05/22 12:03:53;;;;;;;11.17;10.07;;;28.50;65.60;;;;;;5084945;28;20604;-76
2023/05/22 12:06:22;;;;;;;11.73;10.53;;;28.60;68.90;;;;;;5093577;28;20480;-76
2023/05/22 12:08:51;;;;;;;17.10;14.30;;;28.60;69.60;;;;;;5093400;28;20211;-77
2023/05/22 12:11:20;;;;;;;13.57;12.17;;;28.90;64.70;;;;;;5087775;28;20207;-77
2023/05/22 12:13:52;;;;;;;13.90;11.57;;;28.80;68.70;;;;;;5072985;28;20569;-79
2023/05/22 12:16:22;;;;;;;15.03;13.53;;;28.60;70.60;;;;;;5073122;28;20188;-79
2023/05/22 12:18:53;;;;;;;12.13;11.03;;;27.60;67.10;;;;;;5073331;28;20234;-76
2023/05/22 12:21:22;;;;;;;14.80;13.27;;;27.20;76.30;;;;;;5072157;28;20490;-78
2023/05/22 12:23:51;;;;;;;15.17;13.60;;;27.60;69.30;;;;;;5072653;28;20215;-76
2023/05/22 12:26:20;;;;;;;12.90;10.50;;;28.10;68.60;;;;;;5072636;28;20673;-79
2023/05/22 12:28:52;;;;;;;15.63;14.03;;;28.30;73.20;;;;;;5072542;28;20219;-80
2023/05/22 12:31:22;;;;;;;16.10;14.50;;;27.70;73.40;;;;;;5073033;28;20211;-81
2023/05/22 12:33:54;;;;;;;14.50;13.00;;;27.40;72.10;;;;;;5072675;28;20287;-79
2023/05/22 12:36:31;;;;;;;17.67;14.17;;;27.30;75.00;;;;;;5072650;28;20269;-80
2023/05/22 12:38:59;;;;;;;15.83;13.00;;;27.30;75.20;;;;;;5072902;28;20218;-79
2023/05/22 12:41:27;;;;;;;18.37;15.83;;;27.30;76.20;;;;;;5072722;28;20215;-79
2023/05/22 12:43:55;;;;;;;16.60;13.20;;;26.90;74.80;;;;;;5072543;28;20571;-80
2023/05/22 12:46:25;;;;;;;13.17;11.77;;;27.10;78.10;;;;;;5074300;28;20219;-79
2023/05/22 12:48:53;;;;;;;14.93;13.43;;;27.30;79.40;;;;;;5072853;28;20208;-76